sensor_id;sensor_type;location;lat;lon;timestamp;temperature;humidity
52669;DHT22;59898;52.786;6.892;2023-09-19T00:01:55;16.30;87.30
52669;DHT22;59898;52.786;6.892;2023-09-19T00:05:17;16.20;86.80
52669;DHT22;59898;52.786;6.892;2023-09-19T00:08:37;16.20;86.40
52669;DHT22;59898;52.786;6.892;2023-09-19T00:11:58;16.10;86.30
52669;DHT22;59898;52.786;6.892;2023-09-19T00:15:20;16.10;86.10
52669;DHT22;59898;52.786;6.892;2023-09-19T00:18:40;16.00;85.90
52669;DHT22;59898;52.786;6.892;2023-09-19T00:22:01;15.90;85.80
52669;DHT22;59898;52.786;6.892;2023-09-19T00:25:22;15.80;85.80
52669;DHT22;59898;52.786;6.892;2023-09-19T00:28:43;15.80;85.90
52669;DHT22;59898;52.786;6.892;2023-09-19T00:32:03;15.80;86.00
52669;DHT22;59898;52.786;6.892;2023-09-19T00:35:25;15.70;85.90
52669;DHT22;59898;52.786;6.892;2023-09-19T00:38:46;15.60;86.00
52669;DHT22;59898;52.786;6.892;2023-09-19T00:42:07;15.50;86.30
52669;DHT22;59898;52.786;6.892;2023-09-19T00:45:28;15.50;86.50
52669;DHT22;59898;52.786;6.892;2023-09-19T00:48:49;15.50;86.50
52669;DHT22;59898;52.786;6.892;2023-09-19T00:52:11;15.50;86.60
52669;DHT22;59898;52.786;6.892;2023-09-19T00:55:32;15.40;86.70
52669;DHT22;59898;52.786;6.892;2023-09-19T00:58:53;15.40;87.20
52669;DHT22;59898;52.786;6.892;2023-09-19T01:02:15;15.40;87.20
52669;DHT22;59898;52.786;6.892;2023-09-19T01:05:36;15.40;87.50
52669;DHT22;59898;52.786;6.892;2023-09-19T01:08:56;15.40;87.50
52669;DHT22;59898;52.786;6.892;2023-09-19T01:12:22;15.40;87.60
52669;DHT22;59898;52.786;6.892;2023-09-19T01:20:01;15.40;87.50
52669;DHT22;59898;52.786;6.892;2023-09-19T01:23:39;15.40;87.30
52669;DHT22;59898;52.786;6.892;2023-09-19T01:30:58;15.30;87.40
52669;DHT22;59898;52.786;6.892;2023-09-19T01:34:22;15.30;87.40
52669;DHT22;59898;52.786;6.892;2023-09-19T01:37:42;15.30;87.60
52669;DHT22;59898;52.786;6.892;2023-09-19T01:41:11;15.20;88.10
52669;DHT22;59898;52.786;6.892;2023-09-19T01:44:49;15.20;88.60
52669;DHT22;59898;52.786;6.892;2023-09-19T01:52:09;15.10;88.50
52669;DHT22;59898;52.786;6.892;2023-09-19T01:55:36;15.20;88.80
52669;DHT22;59898;52.786;6.892;2023-09-19T01:59:01;15.10;88.80
52669;DHT22;59898;52.786;6.892;2023-09-19T02:02:25;15.10;88.70
52669;DHT22;59898;52.786;6.892;2023-09-19T02:05:50;15.10;88.90
52669;DHT22;59898;52.786;6.892;2023-09-19T02:09:12;15.10;88.70
52669;DHT22;59898;52.786;6.892;2023-09-19T02:12:33;15.10;88.60
52669;DHT22;59898;52.786;6.892;2023-09-19T02:15:55;15.00;88.50
52669;DHT22;59898;52.786;6.892;2023-09-19T02:19:16;15.00;88.50
52669;DHT22;59898;52.786;6.892;2023-09-19T02:22:37;15.00;88.40
52669;DHT22;59898;52.786;6.892;2023-09-19T02:25:59;15.00;88.30
52669;DHT22;59898;52.786;6.892;2023-09-19T02:29:22;15.00;88.20
52669;DHT22;59898;52.786;6.892;2023-09-19T02:32:43;14.90;88.20
52669;DHT22;59898;52.786;6.892;2023-09-19T02:36:03;14.90;88.20
52669;DHT22;59898;52.786;6.892;2023-09-19T02:39:24;14.80;88.10
52669;DHT22;59898;52.786;6.892;2023-09-19T02:42:48;14.80;88.10
52669;DHT22;59898;52.786;6.892;2023-09-19T02:46:11;14.80;88.20
52669;DHT22;59898;52.786;6.892;2023-09-19T02:49:33;14.80;88.10
52669;DHT22;59898;52.786;6.892;2023-09-19T02:52:53;14.80;88.00
52669;DHT22;59898;52.786;6.892;2023-09-19T02:56:14;14.80;88.00
52669;DHT22;59898;52.786;6.892;2023-09-19T02:59:36;14.70;87.90
52669;DHT22;59898;52.786;6.892;2023-09-19T03:02:57;14.70;88.00
52669;DHT22;59898;52.786;6.892;2023-09-19T03:06:18;14.60;88.10
52669;DHT22;59898;52.786;6.892;2023-09-19T03:09:40;14.60;88.10
52669;DHT22;59898;52.786;6.892;2023-09-19T03:13:01;14.60;88.20
52669;DHT22;59898;52.786;6.892;2023-09-19T03:16:22;14.60;88.10
52669;DHT22;59898;52.786;6.892;2023-09-19T03:19:42;14.60;87.80
52669;DHT22;59898;52.786;6.892;2023-09-19T03:23:03;14.60;87.80
52669;DHT22;59898;52.786;6.892;2023-09-19T03:26:26;14.60;87.60
52669;DHT22;59898;52.786;6.892;2023-09-19T03:29:47;14.60;87.60
52669;DHT22;59898;52.786;6.892;2023-09-19T03:33:07;14.60;87.60
52669;DHT22;59898;52.786;6.892;2023-09-19T03:36:29;14.60;87.40
52669;DHT22;59898;52.786;6.892;2023-09-19T03:39:50;14.50;87.50
52669;DHT22;59898;52.786;6.892;2023-09-19T03:43:10;14.50;87.50
52669;DHT22;59898;52.786;6.892;2023-09-19T03:46:31;14.50;87.30
52669;DHT22;59898;52.786;6.892;2023-09-19T03:49:52;14.50;87.30
52669;DHT22;59898;52.786;6.892;2023-09-19T03:53:13;14.50;87.20
52669;DHT22;59898;52.786;6.892;2023-09-19T03:56:34;14.50;87.10
52669;DHT22;59898;52.786;6.892;2023-09-19T03:59:54;14.50;87.30
52669;DHT22;59898;52.786;6.892;2023-09-19T04:03:16;14.50;87.50
52669;DHT22;59898;52.786;6.892;2023-09-19T04:06:41;14.50;87.40
52669;DHT22;59898;52.786;6.892;2023-09-19T04:10:01;14.50;87.40
52669;DHT22;59898;52.786;6.892;2023-09-19T04:13:22;14.60;87.70
52669;DHT22;59898;52.786;6.892;2023-09-19T04:16:43;14.60;87.70
52669;DHT22;59898;52.786;6.892;2023-09-19T04:20:04;14.70;87.90
52669;DHT22;59898;52.786;6.892;2023-09-19T04:23:27;14.60;88.30
52669;DHT22;59898;52.786;6.892;2023-09-19T04:26:48;14.70;88.10
52669;DHT22;59898;52.786;6.892;2023-09-19T04:30:09;14.70;87.90
52669;DHT22;59898;52.786;6.892;2023-09-19T04:33:33;14.70;87.80
52669;DHT22;59898;52.786;6.892;2023-09-19T04:36:55;14.70;87.80
52669;DHT22;59898;52.786;6.892;2023-09-19T04:40:18;14.70;87.70
52669;DHT22;59898;52.786;6.892;2023-09-19T04:43:39;14.70;87.60
52669;DHT22;59898;52.786;6.892;2023-09-19T04:47:00;14.70;87.60
52669;DHT22;59898;52.786;6.892;2023-09-19T04:50:20;14.60;87.40
52669;DHT22;59898;52.786;6.892;2023-09-19T04:53:46;14.70;87.30
52669;DHT22;59898;52.786;6.892;2023-09-19T04:57:08;14.70;87.20
52669;DHT22;59898;52.786;6.892;2023-09-19T05:00:28;14.70;86.80
52669;DHT22;59898;52.786;6.892;2023-09-19T05:03:51;14.70;86.40
52669;DHT22;59898;52.786;6.892;2023-09-19T05:07:14;14.70;86.30
52669;DHT22;59898;52.786;6.892;2023-09-19T05:10:35;14.60;86.10
52669;DHT22;59898;52.786;6.892;2023-09-19T05:13:58;14.60;86.00
52669;DHT22;59898;52.786;6.892;2023-09-19T05:17:22;14.60;85.80
52669;DHT22;59898;52.786;6.892;2023-09-19T05:20:42;14.60;85.80
52669;DHT22;59898;52.786;6.892;2023-09-19T05:24:04;14.60;85.30
52669;DHT22;59898;52.786;6.892;2023-09-19T05:27:26;14.60;85.30
52669;DHT22;59898;52.786;6.892;2023-09-19T05:30:47;14.60;84.90
52669;DHT22;59898;52.786;6.892;2023-09-19T05:34:08;14.60;84.80
52669;DHT22;59898;52.786;6.892;2023-09-19T05:37:29;14.60;84.70
52669;DHT22;59898;52.786;6.892;2023-09-19T05:40:49;14.60;84.70
52669;DHT22;59898;52.786;6.892;2023-09-19T05:44:10;14.50;84.00
52669;DHT22;59898;52.786;6.892;2023-09-19T05:47:31;14.50;83.90
52669;DHT22;59898;52.786;6.892;2023-09-19T05:50:51;14.40;83.90
52669;DHT22;59898;52.786;6.892;2023-09-19T05:54:12;14.40;83.90
52669;DHT22;59898;52.786;6.892;2023-09-19T05:57:33;14.40;83.60
52669;DHT22;59898;52.786;6.892;2023-09-19T06:00:54;14.40;83.50
52669;DHT22;59898;52.786;6.892;2023-09-19T06:04:15;14.30;83.60
52669;DHT22;59898;52.786;6.892;2023-09-19T06:07:37;14.40;83.60
52669;DHT22;59898;52.786;6.892;2023-09-19T06:10:57;14.40;83.30
52669;DHT22;59898;52.786;6.892;2023-09-19T06:14:18;14.40;83.10
52669;DHT22;59898;52.786;6.892;2023-09-19T06:17:39;14.50;82.70
52669;DHT22;59898;52.786;6.892;2023-09-19T06:21:00;14.60;82.50
52669;DHT22;59898;52.786;6.892;2023-09-19T06:24:20;14.60;81.90
52669;DHT22;59898;52.786;6.892;2023-09-19T06:27:41;14.60;81.40
52669;DHT22;59898;52.786;6.892;2023-09-19T06:31:03;14.70;81.40
52669;DHT22;59898;52.786;6.892;2023-09-19T06:34:23;14.70;81.60
52669;DHT22;59898;52.786;6.892;2023-09-19T06:37:46;14.80;81.50
52669;DHT22;59898;52.786;6.892;2023-09-19T06:41:08;14.90;80.90
52669;DHT22;59898;52.786;6.892;2023-09-19T06:44:29;15.00;80.80
52669;DHT22;59898;52.786;6.892;2023-09-19T06:47:51;15.00;80.60
52669;DHT22;59898;52.786;6.892;2023-09-19T06:51:12;15.00;80.20
52669;DHT22;59898;52.786;6.892;2023-09-19T06:54:32;14.90;80.20
52669;DHT22;59898;52.786;6.892;2023-09-19T06:57:54;14.90;80.50
52669;DHT22;59898;52.786;6.892;2023-09-19T07:01:15;14.90;80.50
52669;DHT22;59898;52.786;6.892;2023-09-19T07:04:36;14.90;80.70
52669;DHT22;59898;52.786;6.892;2023-09-19T07:07:57;14.90;80.70
52669;DHT22;59898;52.786;6.892;2023-09-19T07:11:19;14.90;80.60
52669;DHT22;59898;52.786;6.892;2023-09-19T07:14:40;14.90;80.70
52669;DHT22;59898;52.786;6.892;2023-09-19T07:18:00;14.90;80.50
52669;DHT22;59898;52.786;6.892;2023-09-19T07:21:21;15.00;80.70
52669;DHT22;59898;52.786;6.892;2023-09-19T07:24:42;15.30;80.40
52669;DHT22;59898;52.786;6.892;2023-09-19T07:28:03;15.50;79.70
52669;DHT22;59898;52.786;6.892;2023-09-19T07:31:24;15.60;79.40
52669;DHT22;59898;52.786;6.892;2023-09-19T07:34:45;15.80;79.10
52669;DHT22;59898;52.786;6.892;2023-09-19T07:38:07;15.90;77.80
52669;DHT22;59898;52.786;6.892;2023-09-19T07:41:28;15.90;78.30
52669;DHT22;59898;52.786;6.892;2023-09-19T07:44:50;16.00;78.10
52669;DHT22;59898;52.786;6.892;2023-09-19T07:48:11;15.90;77.90
52669;DHT22;59898;52.786;6.892;2023-09-19T07:51:35;15.90;77.90
52669;DHT22;59898;52.786;6.892;2023-09-19T07:54:56;15.90;78.00
52669;DHT22;59898;52.786;6.892;2023-09-19T07:58:17;16.00;77.60
52669;DHT22;59898;52.786;6.892;2023-09-19T08:01:38;16.10;77.40
52669;DHT22;59898;52.786;6.892;2023-09-19T08:05:00;16.30;77.60
52669;DHT22;59898;52.786;6.892;2023-09-19T08:08:20;16.50;76.80
52669;DHT22;59898;52.786;6.892;2023-09-19T08:11:42;16.60;76.70
52669;DHT22;59898;52.786;6.892;2023-09-19T08:15:03;16.80;76.20
52669;DHT22;59898;52.786;6.892;2023-09-19T08:18:24;17.00;75.60
52669;DHT22;59898;52.786;6.892;2023-09-19T08:21:47;17.10;75.50
52669;DHT22;59898;52.786;6.892;2023-09-19T08:25:07;17.10;75.40
52669;DHT22;59898;52.786;6.892;2023-09-19T08:28:28;17.20;75.20
52669;DHT22;59898;52.786;6.892;2023-09-19T08:31:50;17.30;74.90
52669;DHT22;59898;52.786;6.892;2023-09-19T08:35:11;17.30;74.50
52669;DHT22;59898;52.786;6.892;2023-09-19T08:38:33;17.20;75.10
52669;DHT22;59898;52.786;6.892;2023-09-19T08:41:57;17.20;75.10
52669;DHT22;59898;52.786;6.892;2023-09-19T08:45:20;17.20;74.60
52669;DHT22;59898;52.786;6.892;2023-09-19T08:48:46;17.20;74.70
52669;DHT22;59898;52.786;6.892;2023-09-19T08:52:20;17.20;75.00
52669;DHT22;59898;52.786;6.892;2023-09-19T08:55:44;17.40;75.30
52669;DHT22;59898;52.786;6.892;2023-09-19T08:59:09;17.60;74.70
52669;DHT22;59898;52.786;6.892;2023-09-19T09:02:31;17.80;74.70
52669;DHT22;59898;52.786;6.892;2023-09-19T09:05:54;18.00;73.80
52669;DHT22;59898;52.786;6.892;2023-09-19T09:09:15;18.10;72.30
52669;DHT22;59898;52.786;6.892;2023-09-19T09:12:36;18.10;72.90
52669;DHT22;59898;52.786;6.892;2023-09-19T09:16:01;18.20;72.60
52669;DHT22;59898;52.786;6.892;2023-09-19T09:19:22;18.10;72.10
52669;DHT22;59898;52.786;6.892;2023-09-19T09:22:54;18.10;71.60
52669;DHT22;59898;52.786;6.892;2023-09-19T09:26:15;18.30;71.30
52669;DHT22;59898;52.786;6.892;2023-09-19T09:29:44;18.40;70.80
52669;DHT22;59898;52.786;6.892;2023-09-19T09:33:08;18.50;70.20
52669;DHT22;59898;52.786;6.892;2023-09-19T09:36:38;18.60;70.10
52669;DHT22;59898;52.786;6.892;2023-09-19T09:40:02;18.70;69.50
52669;DHT22;59898;52.786;6.892;2023-09-19T09:43:45;18.90;68.80
52669;DHT22;59898;52.786;6.892;2023-09-19T09:47:08;19.00;68.50
52669;DHT22;59898;52.786;6.892;2023-09-19T09:50:48;19.10;68.40
52669;DHT22;59898;52.786;6.892;2023-09-19T09:54:18;19.20;67.60
52669;DHT22;59898;52.786;6.892;2023-09-19T09:57:40;19.20;66.80
52669;DHT22;59898;52.786;6.892;2023-09-19T10:01:03;19.20;65.80
52669;DHT22;59898;52.786;6.892;2023-09-19T10:04:29;19.10;66.00
52669;DHT22;59898;52.786;6.892;2023-09-19T10:07:56;19.20;65.70
52669;DHT22;59898;52.786;6.892;2023-09-19T10:11:32;19.10;65.80
52669;DHT22;59898;52.786;6.892;2023-09-19T10:14:56;19.20;66.40
52669;DHT22;59898;52.786;6.892;2023-09-19T10:18:23;19.20;65.50
52669;DHT22;59898;52.786;6.892;2023-09-19T10:21:44;19.20;65.60
52669;DHT22;59898;52.786;6.892;2023-09-19T10:25:06;19.20;65.80
52669;DHT22;59898;52.786;6.892;2023-09-19T10:28:30;19.30;66.50
52669;DHT22;59898;52.786;6.892;2023-09-19T10:31:52;19.30;65.70
52669;DHT22;59898;52.786;6.892;2023-09-19T10:35:15;19.20;65.80
52669;DHT22;59898;52.786;6.892;2023-09-19T10:38:38;19.30;64.80
52669;DHT22;59898;52.786;6.892;2023-09-19T10:42:02;19.30;65.70
52669;DHT22;59898;52.786;6.892;2023-09-19T10:45:25;19.40;65.70
52669;DHT22;59898;52.786;6.892;2023-09-19T10:48:46;19.40;64.60
52669;DHT22;59898;52.786;6.892;2023-09-19T10:52:10;19.40;64.90
52669;DHT22;59898;52.786;6.892;2023-09-19T10:55:35;19.40;64.20
52669;DHT22;59898;52.786;6.892;2023-09-19T10:59:16;19.30;64.70
52669;DHT22;59898;52.786;6.892;2023-09-19T11:02:38;19.20;64.90
52669;DHT22;59898;52.786;6.892;2023-09-19T11:06:04;19.10;65.40
52669;DHT22;59898;52.786;6.892;2023-09-19T11:09:49;19.10;66.10
52669;DHT22;59898;52.786;6.892;2023-09-19T11:13:27;19.10;65.40
52669;DHT22;59898;52.786;6.892;2023-09-19T11:20:31;18.90;66.30
52669;DHT22;59898;52.786;6.892;2023-09-19T11:31:42;19.00;65.80
52669;DHT22;59898;52.786;6.892;2023-09-19T11:35:07;18.90;65.40
52669;DHT22;59898;52.786;6.892;2023-09-19T11:42:44;18.80;65.60
52669;DHT22;59898;52.786;6.892;2023-09-19T11:46:05;18.80;65.90
52669;DHT22;59898;52.786;6.892;2023-09-19T11:49:28;19.00;65.70
52669;DHT22;59898;52.786;6.892;2023-09-19T11:52:52;19.20;65.20
52669;DHT22;59898;52.786;6.892;2023-09-19T11:56:21;19.40;65.10
52669;DHT22;59898;52.786;6.892;2023-09-19T11:59:42;19.50;64.60
52669;DHT22;59898;52.786;6.892;2023-09-19T12:03:08;19.50;64.70
52669;DHT22;59898;52.786;6.892;2023-09-19T12:06:30;19.40;64.60
52669;DHT22;59898;52.786;6.892;2023-09-19T12:10:03;19.30;64.40
52669;DHT22;59898;52.786;6.892;2023-09-19T12:13:24;19.30;64.70
52669;DHT22;59898;52.786;6.892;2023-09-19T12:16:54;19.20;64.70
52669;DHT22;59898;52.786;6.892;2023-09-19T12:20:15;19.00;64.30
52669;DHT22;59898;52.786;6.892;2023-09-19T12:23:37;18.80;65.20
52669;DHT22;59898;52.786;6.892;2023-09-19T12:27:05;18.80;65.90
52669;DHT22;59898;52.786;6.892;2023-09-19T12:30:29;18.70;66.40
52669;DHT22;59898;52.786;6.892;2023-09-19T12:33:54;18.80;66.70
52669;DHT22;59898;52.786;6.892;2023-09-19T12:37:15;19.00;66.80
52669;DHT22;59898;52.786;6.892;2023-09-19T12:40:41;19.20;66.20
52669;DHT22;59898;52.786;6.892;2023-09-19T12:44:04;19.20;66.20
52669;DHT22;59898;52.786;6.892;2023-09-19T12:47:29;19.20;66.00
52669;DHT22;59898;52.786;6.892;2023-09-19T12:51:12;19.10;66.50
52669;DHT22;59898;52.786;6.892;2023-09-19T12:54:39;19.00;67.10
52669;DHT22;59898;52.786;6.892;2023-09-19T13:01:27;19.10;67.00
52669;DHT22;59898;52.786;6.892;2023-09-19T13:04:54;19.10;66.90
52669;DHT22;59898;52.786;6.892;2023-09-19T13:08:30;19.00;67.30
52669;DHT22;59898;52.786;6.892;2023-09-19T13:11:51;19.00;67.30
52669;DHT22;59898;52.786;6.892;2023-09-19T13:15:15;18.90;67.20
52669;DHT22;59898;52.786;6.892;2023-09-19T13:18:47;18.80;67.60
52669;DHT22;59898;52.786;6.892;2023-09-19T13:22:40;18.80;67.80
52669;DHT22;59898;52.786;6.892;2023-09-19T13:26:02;18.80;67.90
52669;DHT22;59898;52.786;6.892;2023-09-19T13:29:26;18.80;68.20
52669;DHT22;59898;52.786;6.892;2023-09-19T13:32:47;18.80;68.40
52669;DHT22;59898;52.786;6.892;2023-09-19T13:36:10;18.80;68.60
52669;DHT22;59898;52.786;6.892;2023-09-19T13:39:32;18.80;68.60
52669;DHT22;59898;52.786;6.892;2023-09-19T13:42:52;18.80;68.40
52669;DHT22;59898;52.786;6.892;2023-09-19T13:46:14;18.80;68.10
52669;DHT22;59898;52.786;6.892;2023-09-19T13:49:36;18.80;68.10
52669;DHT22;59898;52.786;6.892;2023-09-19T13:52:59;18.80;67.90
52669;DHT22;59898;52.786;6.892;2023-09-19T13:56:22;18.80;68.00
52669;DHT22;59898;52.786;6.892;2023-09-19T13:59:44;18.80;68.00
52669;DHT22;59898;52.786;6.892;2023-09-19T14:03:04;18.70;68.20
52669;DHT22;59898;52.786;6.892;2023-09-19T14:06:25;18.80;68.10
52669;DHT22;59898;52.786;6.892;2023-09-19T14:09:48;18.80;68.10
52669;DHT22;59898;52.786;6.892;2023-09-19T14:13:09;18.80;67.80
52669;DHT22;59898;52.786;6.892;2023-09-19T14:16:30;18.80;67.70
52669;DHT22;59898;52.786;6.892;2023-09-19T14:19:51;18.80;67.30
52669;DHT22;59898;52.786;6.892;2023-09-19T14:23:11;18.90;67.50
52669;DHT22;59898;52.786;6.892;2023-09-19T14:26:32;18.90;67.20
52669;DHT22;59898;52.786;6.892;2023-09-19T14:29:53;18.90;67.10
52669;DHT22;59898;52.786;6.892;2023-09-19T14:33:13;18.90;67.40
52669;DHT22;59898;52.786;6.892;2023-09-19T14:36:36;18.90;67.50
52669;DHT22;59898;52.786;6.892;2023-09-19T14:39:59;18.80;67.60
52669;DHT22;59898;52.786;6.892;2023-09-19T14:43:19;18.80;67.60
52669;DHT22;59898;52.786;6.892;2023-09-19T14:46:40;18.90;67.70
52669;DHT22;59898;52.786;6.892;2023-09-19T14:50:02;18.90;67.70
52669;DHT22;59898;52.786;6.892;2023-09-19T14:53:26;18.90;67.70
52669;DHT22;59898;52.786;6.892;2023-09-19T14:56:48;18.90;67.60
52669;DHT22;59898;52.786;6.892;2023-09-19T15:00:14;18.90;67.80
52669;DHT22;59898;52.786;6.892;2023-09-19T15:03:35;18.90;67.90
52669;DHT22;59898;52.786;6.892;2023-09-19T15:06:56;18.90;67.90
52669;DHT22;59898;52.786;6.892;2023-09-19T15:10:17;18.90;68.20
52669;DHT22;59898;52.786;6.892;2023-09-19T15:13:39;18.90;68.30
52669;DHT22;59898;52.786;6.892;2023-09-19T15:16:59;18.90;68.30
52669;DHT22;59898;52.786;6.892;2023-09-19T15:20:20;18.90;68.30
52669;DHT22;59898;52.786;6.892;2023-09-19T15:23:43;18.80;68.40
52669;DHT22;59898;52.786;6.892;2023-09-19T15:27:04;18.80;68.60
52669;DHT22;59898;52.786;6.892;2023-09-19T15:30:25;18.90;68.70
52669;DHT22;59898;52.786;6.892;2023-09-19T15:33:46;18.90;68.60
52669;DHT22;59898;52.786;6.892;2023-09-19T15:37:06;18.90;68.60
52669;DHT22;59898;52.786;6.892;2023-09-19T15:40:27;18.90;68.40
52669;DHT22;59898;52.786;6.892;2023-09-19T15:43:48;18.90;68.40
52669;DHT22;59898;52.786;6.892;2023-09-19T15:47:08;18.80;68.40
52669;DHT22;59898;52.786;6.892;2023-09-19T15:50:29;18.80;68.50
52669;DHT22;59898;52.786;6.892;2023-09-19T15:53:51;18.80;68.60
52669;DHT22;59898;52.786;6.892;2023-09-19T15:57:13;18.80;68.40
52669;DHT22;59898;52.786;6.892;2023-09-19T16:00:34;18.80;68.40
52669;DHT22;59898;52.786;6.892;2023-09-19T16:03:55;18.80;68.60
52669;DHT22;59898;52.786;6.892;2023-09-19T16:07:18;18.80;68.70
52669;DHT22;59898;52.786;6.892;2023-09-19T16:10:41;18.80;68.90
52669;DHT22;59898;52.786;6.892;2023-09-19T16:14:02;18.80;69.00
52669;DHT22;59898;52.786;6.892;2023-09-19T16:17:23;18.80;69.20
52669;DHT22;59898;52.786;6.892;2023-09-19T16:20:43;18.80;69.20
52669;DHT22;59898;52.786;6.892;2023-09-19T16:24:04;18.80;69.10
52669;DHT22;59898;52.786;6.892;2023-09-19T16:27:32;18.80;69.20
52669;DHT22;59898;52.786;6.892;2023-09-19T16:30:58;18.80;69.30
52669;DHT22;59898;52.786;6.892;2023-09-19T16:34:18;18.80;69.40
52669;DHT22;59898;52.786;6.892;2023-09-19T16:37:39;18.70;69.60
52669;DHT22;59898;52.786;6.892;2023-09-19T16:40:59;18.80;69.70
52669;DHT22;59898;52.786;6.892;2023-09-19T16:44:20;18.70;69.90
52669;DHT22;59898;52.786;6.892;2023-09-19T16:47:41;18.70;70.00
52669;DHT22;59898;52.786;6.892;2023-09-19T16:51:09;18.70;70.20
52669;DHT22;59898;52.786;6.892;2023-09-19T16:54:29;18.70;70.30
52669;DHT22;59898;52.786;6.892;2023-09-19T16:57:50;18.70;70.60
52669;DHT22;59898;52.786;6.892;2023-09-19T17:01:11;18.70;70.60
52669;DHT22;59898;52.786;6.892;2023-09-19T17:04:33;18.60;70.80
52669;DHT22;59898;52.786;6.892;2023-09-19T17:07:54;18.60;70.90
52669;DHT22;59898;52.786;6.892;2023-09-19T17:11:16;18.50;71.00
52669;DHT22;59898;52.786;6.892;2023-09-19T17:14:37;18.50;71.10
52669;DHT22;59898;52.786;6.892;2023-09-19T17:17:58;18.50;71.30
52669;DHT22;59898;52.786;6.892;2023-09-19T17:21:20;18.40;71.60
52669;DHT22;59898;52.786;6.892;2023-09-19T17:24:40;18.40;71.80
52669;DHT22;59898;52.786;6.892;2023-09-19T17:28:01;18.30;71.90
52669;DHT22;59898;52.786;6.892;2023-09-19T17:31:24;18.40;71.90
52669;DHT22;59898;52.786;6.892;2023-09-19T17:34:47;18.30;72.00
52669;DHT22;59898;52.786;6.892;2023-09-19T17:38:09;18.30;72.00
52669;DHT22;59898;52.786;6.892;2023-09-19T17:41:31;18.30;72.40
52669;DHT22;59898;52.786;6.892;2023-09-19T17:44:51;18.30;72.70
52669;DHT22;59898;52.786;6.892;2023-09-19T17:48:12;18.20;72.70
52669;DHT22;59898;52.786;6.892;2023-09-19T17:51:33;18.30;72.90
52669;DHT22;59898;52.786;6.892;2023-09-19T17:54:53;18.20;73.00
52669;DHT22;59898;52.786;6.892;2023-09-19T17:58:17;18.20;73.20
52669;DHT22;59898;52.786;6.892;2023-09-19T18:01:38;18.10;73.70
52669;DHT22;59898;52.786;6.892;2023-09-19T18:04:58;18.10;73.60
52669;DHT22;59898;52.786;6.892;2023-09-19T18:08:19;18.10;74.00
52669;DHT22;59898;52.786;6.892;2023-09-19T18:11:44;18.10;74.10
52669;DHT22;59898;52.786;6.892;2023-09-19T18:15:04;18.10;74.10
52669;DHT22;59898;52.786;6.892;2023-09-19T18:18:27;18.10;74.40
52669;DHT22;59898;52.786;6.892;2023-09-19T18:21:48;18.00;74.90
52669;DHT22;59898;52.786;6.892;2023-09-19T18:25:08;18.00;75.30
52669;DHT22;59898;52.786;6.892;2023-09-19T18:28:29;17.90;75.90
52669;DHT22;59898;52.786;6.892;2023-09-19T18:31:52;17.90;76.40
52669;DHT22;59898;52.786;6.892;2023-09-19T18:35:12;17.80;77.40
52669;DHT22;59898;52.786;6.892;2023-09-19T18:38:39;17.70;77.40
52669;DHT22;59898;52.786;6.892;2023-09-19T18:42:00;17.60;79.30
52669;DHT22;59898;52.786;6.892;2023-09-19T18:45:21;17.40;79.30
52669;DHT22;59898;52.786;6.892;2023-09-19T18:48:43;17.30;80.70
52669;DHT22;59898;52.786;6.892;2023-09-19T18:52:05;17.30;81.10
52669;DHT22;59898;52.786;6.892;2023-09-19T18:55:28;17.20;81.80
52669;DHT22;59898;52.786;6.892;2023-09-19T18:58:51;17.20;81.40
52669;DHT22;59898;52.786;6.892;2023-09-19T19:02:12;17.20;81.80
52669;DHT22;59898;52.786;6.892;2023-09-19T19:05:33;17.10;82.80
52669;DHT22;59898;52.786;6.892;2023-09-19T19:08:53;17.10;82.30
52669;DHT22;59898;52.786;6.892;2023-09-19T19:12:14;17.10;82.80
52669;DHT22;59898;52.786;6.892;2023-09-19T19:15:35;17.00;83.40
52669;DHT22;59898;52.786;6.892;2023-09-19T19:18:55;17.00;84.10
52669;DHT22;59898;52.786;6.892;2023-09-19T19:22:16;16.90;84.60
52669;DHT22;59898;52.786;6.892;2023-09-19T19:25:46;16.90;84.90
52669;DHT22;59898;52.786;6.892;2023-09-19T19:29:12;16.90;84.50
52669;DHT22;59898;52.786;6.892;2023-09-19T19:32:35;16.80;85.30
52669;DHT22;59898;52.786;6.892;2023-09-19T19:36:06;16.80;85.00
52669;DHT22;59898;52.786;6.892;2023-09-19T19:39:31;16.80;85.40
52669;DHT22;59898;52.786;6.892;2023-09-19T19:42:53;16.80;85.60
52669;DHT22;59898;52.786;6.892;2023-09-19T19:46:14;16.70;86.00
52669;DHT22;59898;52.786;6.892;2023-09-19T19:49:42;16.70;85.70
52669;DHT22;59898;52.786;6.892;2023-09-19T19:53:08;16.70;86.10
52669;DHT22;59898;52.786;6.892;2023-09-19T19:56:34;16.70;85.90
52669;DHT22;59898;52.786;6.892;2023-09-19T19:59:56;16.70;86.60
52669;DHT22;59898;52.786;6.892;2023-09-19T20:03:17;16.60;87.10
52669;DHT22;59898;52.786;6.892;2023-09-19T20:06:39;16.60;86.70
52669;DHT22;59898;52.786;6.892;2023-09-19T20:10:01;16.60;86.70
52669;DHT22;59898;52.786;6.892;2023-09-19T20:13:23;16.60;87.20
52669;DHT22;59898;52.786;6.892;2023-09-19T20:16:43;16.60;86.90
52669;DHT22;59898;52.786;6.892;2023-09-19T20:20:06;16.70;86.80
52669;DHT22;59898;52.786;6.892;2023-09-19T20:23:39;16.60;87.40
52669;DHT22;59898;52.786;6.892;2023-09-19T20:27:03;16.60;87.40
52669;DHT22;59898;52.786;6.892;2023-09-19T20:30:27;16.60;87.30
52669;DHT22;59898;52.786;6.892;2023-09-19T20:33:47;16.70;87.10
52669;DHT22;59898;52.786;6.892;2023-09-19T20:37:09;16.70;87.40
52669;DHT22;59898;52.786;6.892;2023-09-19T20:40:30;16.70;86.90
52669;DHT22;59898;52.786;6.892;2023-09-19T20:43:51;16.70;87.00
52669;DHT22;59898;52.786;6.892;2023-09-19T20:47:11;16.80;87.00
52669;DHT22;59898;52.786;6.892;2023-09-19T20:50:32;16.70;87.20
52669;DHT22;59898;52.786;6.892;2023-09-19T20:53:53;16.80;87.00
52669;DHT22;59898;52.786;6.892;2023-09-19T20:57:14;16.80;86.90
52669;DHT22;59898;52.786;6.892;2023-09-19T21:00:34;16.80;86.70
52669;DHT22;59898;52.786;6.892;2023-09-19T21:03:59;16.90;86.50
52669;DHT22;59898;52.786;6.892;2023-09-19T21:07:19;16.90;86.40
52669;DHT22;59898;52.786;6.892;2023-09-19T21:10:40;16.90;86.50
52669;DHT22;59898;52.786;6.892;2023-09-19T21:14:01;16.90;86.10
52669;DHT22;59898;52.786;6.892;2023-09-19T21:17:22;17.00;86.10
52669;DHT22;59898;52.786;6.892;2023-09-19T21:20:44;17.00;86.00
52669;DHT22;59898;52.786;6.892;2023-09-19T21:24:05;17.00;85.70
52669;DHT22;59898;52.786;6.892;2023-09-19T21:27:26;17.10;85.60
52669;DHT22;59898;52.786;6.892;2023-09-19T21:31:01;17.10;85.30
52669;DHT22;59898;52.786;6.892;2023-09-19T21:34:23;17.10;85.20
52669;DHT22;59898;52.786;6.892;2023-09-19T21:37:44;17.20;85.00
52669;DHT22;59898;52.786;6.892;2023-09-19T21:41:07;17.20;84.80
52669;DHT22;59898;52.786;6.892;2023-09-19T21:44:28;17.20;84.70
52669;DHT22;59898;52.786;6.892;2023-09-19T21:47:49;17.30;84.70
52669;DHT22;59898;52.786;6.892;2023-09-19T21:51:09;17.30;84.50